Time;durP1;ratioP1;P1;durP2;ratioP2;P2;SDS_P1;SDS_P2;PMS_P1;PMS_P2;Temp;Humidity;BMP_temperature;BMP_pressure;BME280_temperature;BME280_humidity;BME280_pressure;Samples;Min_cycle;Max_cycle;Signal;HPM_P1;HPM_P2
2022/03/07 00:01:38;;;;;;;26.73;11.15;;;;;;;;;;4996456;28;96910;-74
2022/03/07 00:04:05;;;;;;;22.17;11.27;;;;;;;;;;4985239;28;97470;-75
2022/03/07 00:06:32;;;;;;;18.67;10.40;;;;;;;;;;4984867;28;96947;-74
2022/03/07 00:08:58;;;;;;;24.45;11.15;;;;;;;;;;4989183;28;97467;-76
2022/03/07 00:11:25;;;;;;;20.02;11.05;;;;;;;;;;4990384;28;95531;-76
2022/03/07 00:13:51;;;;;;;17.50;11.02;;;;;;;;;;4989364;28;96834;-75
2022/03/07 00:16:18;;;;;;;21.13;11.30;;;;;;;;;;4995245;28;97260;-75
2022/03/07 00:18:44;;;;;;;18.58;10.43;;;;;;;;;;5007358;28;95936;-75
2022/03/07 00:21:10;;;;;;;22.02;11.02;;;;;;;;;;4969629;28;97259;-75
2022/03/07 00:23:37;;;;;;;23.42;11.23;;;;;;;;;;4973264;28;97477;-75
2022/03/07 00:26:06;;;;;;;23.98;11.73;;;;;;;;;;4969721;28;96770;-76
2022/03/07 00:28:33;;;;;;;21.50;10.75;;;;;;;;;;4981957;28;97625;-75
2022/03/07 00:30:59;;;;;;;22.90;11.32;;;;;;;;;;4996847;28;95312;-75
2022/03/07 00:33:26;;;;;;;21.05;10.77;;;;;;;;;;5009776;28;96744;-76
2022/03/07 00:35:52;;;;;;;24.45;11.55;;;;;;;;;;5009106;28;96093;-74
2022/03/07 00:38:18;;;;;;;19.75;11.15;;;;;;;;;;4997019;28;95539;-74
2022/03/07 00:40:45;;;;;;;23.27;11.77;;;;;;;;;;4989373;28;95742;-75
2022/03/07 00:43:11;;;;;;;20.20;10.13;;;;;;;;;;4989210;28;97285;-75
2022/03/07 00:45:38;;;;;;;20.35;10.02;;;;;;;;;;4986422;28;95909;-75
2022/03/07 00:48:04;;;;;;;18.70;9.43;;;;;;;;;;4982886;28;97711;-76
2022/03/07 00:50:31;;;;;;;17.27;10.63;;;;;;;;;;4980313;28;95305;-74
2022/03/07 00:52:57;;;;;;;23.08;10.02;;;;;;;;;;4969785;28;97184;-74
2022/03/07 00:55:23;;;;;;;16.65;9.85;;;;;;;;;;4984198;28;97717;-75
2022/03/07 00:57:50;;;;;;;19.33;10.75;;;;;;;;;;4988362;28;95593;-76
2022/03/07 01:00:19;;;;;;;16.30;9.15;;;;;;;;;;4999774;28;96804;-75
2022/03/07 01:02:45;;;;;;;17.83;9.73;;;;;;;;;;5008764;28;97570;-75
2022/03/07 01:05:14;;;;;;;21.30;10.25;;;;;;;;;;4991865;28;95315;-75
2022/03/07 01:07:40;;;;;;;20.60;10.00;;;;;;;;;;4992090;28;97116;-75
2022/03/07 01:10:07;;;;;;;17.90;9.82;;;;;;;;;;4988501;28;95639;-75
2022/03/07 01:12:34;;;;;;;20.02;10.18;;;;;;;;;;4989566;28;97322;-74
2022/03/07 01:15:03;;;;;;;16.80;9.93;;;;;;;;;;4988397;28;97760;-75
2022/03/07 01:17:30;;;;;;;18.08;10.15;;;;;;;;;;4989454;28;95764;-75
2022/03/07 01:19:56;;;;;;;17.65;8.98;;;;;;;;;;4995636;28;96848;-74
2022/03/07 01:22:23;;;;;;;19.35;9.73;;;;;;;;;;5001943;28;97238;-76
2022/03/07 01:24:49;;;;;;;19.00;10.45;;;;;;;;;;4995000;28;95778;-76
2022/03/07 01:27:16;;;;;;;16.75;9.48;;;;;;;;;;5002132;28;95829;-75
2022/03/07 01:29:42;;;;;;;18.15;9.23;;;;;;;;;;5005208;28;97281;-77
2022/03/07 01:32:08;;;;;;;18.33;10.77;;;;;;;;;;4994658;28;96994;-76
2022/03/07 01:34:35;;;;;;;15.98;8.75;;;;;;;;;;5000257;28;97825;-76
2022/03/07 01:37:01;;;;;;;17.27;9.13;;;;;;;;;;5003980;28;95720;-77
2022/03/07 01:39:28;;;;;;;14.15;8.82;;;;;;;;;;4997021;28;96926;-75
2022/03/07 01:41:54;;;;;;;17.02;9.82;;;;;;;;;;4995658;28;97893;-76
2022/03/07 01:44:22;;;;;;;14.65;9.00;;;;;;;;;;4999468;28;95400;-77
2022/03/07 01:46:48;;;;;;;15.57;9.25;;;;;;;;;;4992734;28;96661;-76
2022/03/07 01:49:15;;;;;;;16.83;8.40;;;;;;;;;;5002044;28;97312;-74
2022/03/07 01:51:42;;;;;;;14.55;8.85;;;;;;;;;;5001444;28;96076;-76
2022/03/07 01:54:10;;;;;;;15.93;8.88;;;;;;;;;;4994453;28;97363;-75
2022/03/07 01:56:36;;;;;;;26.52;9.23;;;;;;;;;;4988883;28;95916;-75
2022/03/07 01:59:04;;;;;;;16.65;9.05;;;;;;;;;;5007400;28;97214;-76
2022/03/07 02:01:31;;;;;;;15.45;8.10;;;;;;;;;;5006605;28;96953;-76
2022/03/07 02:03:58;;;;;;;17.63;8.60;;;;;;;;;;5000849;28;95674;-74
2022/03/07 02:06:25;;;;;;;13.85;8.43;;;;;;;;;;4991693;28;96849;-76
2022/03/07 02:08:52;;;;;;;13.20;7.68;;;;;;;;;;5003809;28;97341;-75
2022/03/07 02:11:19;;;;;;;14.57;8.73;;;;;;;;;;5001696;28;95296;-76
2022/03/07 02:13:45;;;;;;;16.50;8.60;;;;;;;;;;5001751;28;97289;-76
2022/03/07 02:16:14;;;;;;;15.82;8.85;;;;;;;;;;4994424;28;95464;-75
2022/03/07 02:18:41;;;;;;;17.10;8.27;;;;;;;;;;5007888;28;96796;-75
2022/03/07 02:21:09;;;;;;;15.43;8.63;;;;;;;;;;4996303;28;97292;-76
2022/03/07 02:23:36;;;;;;;21.45;8.95;;;;;;;;;;5002897;28;95405;-76
2022/03/07 02:26:29;;;;;;;16.27;8.57;;;;;;;;;;4987270;28;96900;-75
2022/03/07 02:28:55;;;;;;;16.13;8.07;;;;;;;;;;5000851;28;97663;-75
2022/03/07 02:31:22;;;;;;;13.85;7.82;;;;;;;;;;5009904;28;95723;-76
2022/03/07 02:33:49;;;;;;;16.25;7.78;;;;;;;;;;5004085;28;96804;-76
2022/03/07 02:36:15;;;;;;;15.07;8.13;;;;;;;;;;4997368;28;95574;-76
2022/03/07 02:38:42;;;;;;;21.77;8.95;;;;;;;;;;5008170;28;97221;-78
2022/03/07 02:41:09;;;;;;;15.98;8.90;;;;;;;;;;4994569;28;96186;-75
2022/03/07 02:43:35;;;;;;;15.18;8.05;;;;;;;;;;5002574;28;95395;-76
2022/03/07 02:46:02;;;;;;;12.55;7.85;;;;;;;;;;4991018;28;96579;-75
2022/03/07 02:48:28;;;;;;;15.73;8.00;;;;;;;;;;5003499;28;96093;-75
2022/03/07 02:50:57;;;;;;;16.13;7.45;;;;;;;;;;4978834;28;95250;-74
2022/03/07 02:53:25;;;;;;;12.63;7.03;;;;;;;;;;5003936;28;96196;-76
2022/03/07 02:55:51;;;;;;;19.42;8.00;;;;;;;;;;5001965;28;97608;-76
2022/03/07 02:58:17;;;;;;;14.10;8.18;;;;;;;;;;5000376;28;96792;-74
2022/03/07 03:00:45;;;;;;;15.13;8.35;;;;;;;;;;5009131;28;97626;-77
2022/03/07 03:03:13;;;;;;;17.70;9.02;;;;;;;;;;4996811;28;95444;-76
2022/03/07 03:05:39;;;;;;;15.13;8.45;;;;;;;;;;5001400;28;96806;-75
2022/03/07 03:08:06;;;;;;;16.48;8.32;;;;;;;;;;5002251;28;97327;-75
2022/03/07 03:10:32;;;;;;;16.15;9.05;;;;;;;;;;5007470;28;95853;-76
2022/03/07 03:12:58;;;;;;;16.55;8.63;;;;;;;;;;5007715;28;97070;-76
2022/03/07 03:15:25;;;;;;;14.40;8.82;;;;;;;;;;5003060;28;97652;-77
2022/03/07 03:17:51;;;;;;;20.88;9.05;;;;;;;;;;4997779;28;95823;-76
2022/03/07 03:20:17;;;;;;;17.90;8.88;;;;;;;;;;4990519;28;97339;-76
2022/03/07 03:22:44;;;;;;;16.67;8.57;;;;;;;;;;4991103;28;95467;-77
2022/03/07 03:25:11;;;;;;;15.43;8.77;;;;;;;;;;4990828;28;96086;-77
2022/03/07 03:27:38;;;;;;;13.23;8.55;;;;;;;;;;4980793;28;97413;-76
2022/03/07 03:30:06;;;;;;;14.23;8.27;;;;;;;;;;4970306;28;95264;-76
2022/03/07 03:32:32;;;;;;;18.25;8.55;;;;;;;;;;4986466;28;96938;-77
2022/03/07 03:34:59;;;;;;;17.83;8.63;;;;;;;;;;4970736;28;96642;-78
2022/03/07 03:37:25;;;;;;;14.27;8.10;;;;;;;;;;4971362;28;95860;-75
2022/03/07 03:39:52;;;;;;;15.25;8.15;;;;;;;;;;4974907;28;97167;-77
2022/03/07 03:42:18;;;;;;;15.27;8.90;;;;;;;;;;5009779;28;95511;-76
2022/03/07 03:44:45;;;;;;;15.05;8.57;;;;;;;;;;5009454;28;96967;-76
2022/03/07 03:47:11;;;;;;;16.42;8.15;;;;;;;;;;5010510;28;97343;-77
2022/03/07 03:49:37;;;;;;;13.20;8.18;;;;;;;;;;5008431;28;95775;-79
2022/03/07 03:52:04;;;;;;;14.90;8.73;;;;;;;;;;5010320;28;97298;-77
2022/03/07 03:54:30;;;;;;;20.65;9.40;;;;;;;;;;5009092;28;97580;-78
2022/03/07 03:56:56;;;;;;;17.92;9.02;;;;;;;;;;5010466;28;95172;-76
2022/03/07 03:59:23;;;;;;;16.25;8.50;;;;;;;;;;5010118;28;96145;-75
2022/03/07 04:01:49;;;;;;;17.98;7.68;;;;;;;;;;5013744;28;97610;-74
2022/03/07 04:04:16;;;;;;;17.42;8.38;;;;;;;;;;5010527;28;97294;-75
2022/03/07 04:06:42;;;;;;;14.63;8.10;;;;;;;;;;5009667;28;97413;-74
2022/03/07 04:09:15;;;;;;;17.00;8.00;;;;;;;;;;5007932;28;95464;-77
2022/03/07 04:11:42;;;;;;;15.25;8.38;;;;;;;;;;5010030;28;96834;-78
2022/03/07 04:14:08;;;;;;;14.32;7.82;;;;;;;;;;5009880;28;97377;-80
2022/03/07 04:16:38;;;;;;;15.50;7.72;;;;;;;;;;5009192;28;95392;-79
2022/03/07 04:19:06;;;;;;;19.17;8.00;;;;;;;;;;5008743;28;95985;-79
2022/03/07 04:21:33;;;;;;;12.73;8.18;;;;;;;;;;5010171;28;97314;-77
2022/03/07 04:24:00;;;;;;;16.38;8.57;;;;;;;;;;5003543;28;95358;-79
2022/03/07 04:26:26;;;;;;;17.20;8.32;;;;;;;;;;4989625;28;98084;-77
2022/03/07 04:28:53;;;;;;;16.23;8.45;;;;;;;;;;4989736;28;95394;-76
2022/03/07 04:31:19;;;;;;;14.50;8.00;;;;;;;;;;4990205;28;97125;-79
2022/03/07 04:33:45;;;;;;;13.88;8.25;;;;;;;;;;4989337;28;97623;-76
2022/03/07 04:36:13;;;;;;;16.02;8.73;;;;;;;;;;4990056;28;95414;-76
2022/03/07 04:38:40;;;;;;;16.67;9.80;;;;;;;;;;5002098;28;97317;-78
2022/03/07 04:41:06;;;;;;;18.40;9.43;;;;;;;;;;5008976;28;97492;-75
2022/03/07 04:43:33;;;;;;;17.08;9.52;;;;;;;;;;5013185;28;95497;-77
2022/03/07 04:45:59;;;;;;;18.85;10.15;;;;;;;;;;5009472;28;96229;-78
2022/03/07 04:48:26;;;;;;;15.20;9.07;;;;;;;;;;5008805;28;95384;-77
2022/03/07 04:50:52;;;;;;;16.35;9.02;;;;;;;;;;5010156;28;97118;-77
2022/03/07 04:53:18;;;;;;;14.88;9.15;;;;;;;;;;4995106;28;97699;-75
2022/03/07 04:55:45;;;;;;;18.60;9.30;;;;;;;;;;4991101;28;95486;-75
2022/03/07 04:58:14;;;;;;;17.52;9.82;;;;;;;;;;4991965;28;96396;-75
2022/03/07 05:00:41;;;;;;;20.25;9.73;;;;;;;;;;4989765;28;97503;-75
2022/03/07 05:03:08;;;;;;;16.65;8.82;;;;;;;;;;4989120;28;95484;-75
2022/03/07 05:05:34;;;;;;;14.40;8.75;;;;;;;;;;4992633;28;95985;-76
2022/03/07 05:08:01;;;;;;;15.23;8.93;;;;;;;;;;4988526;28;95584;-75
2022/03/07 05:10:28;;;;;;;21.35;9.25;;;;;;;;;;4989780;28;96992;-77
2022/03/07 05:12:55;;;;;;;18.98;9.45;;;;;;;;;;4987905;28;97555;-77
2022/03/07 05:15:22;;;;;;;14.75;9.18;;;;;;;;;;4988907;28;95337;-76
2022/03/07 05:17:53;;;;;;;17.85;9.98;;;;;;;;;;4989281;28;97018;-77
2022/03/07 05:20:21;;;;;;;19.17;10.47;;;;;;;;;;4991490;28;97347;-75
2022/03/07 05:23:08;;;;;;;14.88;9.27;;;;;;;;;;5008494;28;95537;-75
2022/03/07 05:25:34;;;;;;;22.55;9.82;;;;;;;;;;5009757;28;96851;-76
2022/03/07 05:28:01;;;;;;;18.83;9.77;;;;;;;;;;5011633;28;97764;-75
2022/03/07 05:30:27;;;;;;;16.50;9.43;;;;;;;;;;5007808;28;97152;-77
2022/03/07 05:32:55;;;;;;;18.40;9.52;;;;;;;;;;5008871;28;97294;-76
2022/03/07 05:35:23;;;;;;;16.35;9.25;;;;;;;;;;5001271;28;95659;-77
2022/03/07 05:37:49;;;;;;;19.30;10.00;;;;;;;;;;4988666;28;100252;-77
2022/03/07 05:40:16;;;;;;;15.48;9.05;;;;;;;;;;4988296;28;97973;-76
2022/03/07 05:42:43;;;;;;;17.63;10.07;;;;;;;;;;4989338;28;95429;-76
2022/03/07 05:45:13;;;;;;;19.27;10.57;;;;;;;;;;4988062;28;96971;-77
2022/03/07 05:47:40;;;;;;;20.17;10.73;;;;;;;;;;4988254;28;97393;-78
2022/03/07 05:50:08;;;;;;;19.83;10.00;;;;;;;;;;5002565;28;95317;-78
2022/03/07 05:52:36;;;;;;;19.20;10.52;;;;;;;;;;5008718;28;97725;-78
2022/03/07 18:01:02;;;;;;;15.35;9.23;;;;;;;;;;5032520;27;1277338;-74
2022/03/07 18:03:30;;;;;;;19.85;10.80;;;;;;;;;;5064574;27;97239;-75
2022/03/07 18:05:57;;;;;;;23.52;13.20;;;;;;;;;;5065117;27;95557;-74
2022/03/07 18:08:23;;;;;;;22.25;11.70;;;;;;;;;;5065004;27;96845;-74
2022/03/07 18:10:50;;;;;;;30.92;13.88;;;;;;;;;;5064535;27;97901;-74
2022/03/07 18:13:16;;;;;;;34.67;15.52;;;;;;;;;;5065135;27;95174;-74
2022/03/07 18:15:42;;;;;;;30.08;12.85;;;;;;;;;;5063968;27;96737;-75
2022/03/07 18:18:10;;;;;;;23.73;12.40;;;;;;;;;;5045517;27;97308;-76
2022/03/07 18:20:36;;;;;;;16.25;10.13;;;;;;;;;;5068726;27;96139;-78
2022/03/07 18:23:03;;;;;;;17.05;10.75;;;;;;;;;;5064426;27;97422;-75
2022/03/07 18:25:29;;;;;;;35.22;18.85;;;;;;;;;;5065217;27;95830;-75
2022/03/07 18:27:58;;;;;;;21.25;12.82;;;;;;;;;;5065233;27;97009;-75
2022/03/07 18:30:24;;;;;;;16.55;11.45;;;;;;;;;;5064402;27;97399;-75
2022/03/07 18:32:51;;;;;;;27.50;10.32;;;;;;;;;;5064955;27;95294;-75
2022/03/07 18:35:17;;;;;;;21.77;10.10;;;;;;;;;;5064773;27;96841;-75
2022/03/07 18:37:43;;;;;;;15.70;10.07;;;;;;;;;;5064363;27;96970;-75
2022/03/07 18:40:10;;;;;;;17.25;9.80;;;;;;;;;;5064488;27;95288;-75
2022/03/07 18:42:37;;;;;;;15.55;10.15;;;;;;;;;;5068609;27;96715;-75
2022/03/07 18:45:04;;;;;;;14.23;9.73;;;;;;;;;;5064380;27;95981;-74
2022/03/07 18:47:30;;;;;;;16.27;9.98;;;;;;;;;;5064971;27;96964;-75
2022/03/07 18:49:57;;;;;;;15.05;10.10;;;;;;;;;;5064528;27;96431;-75
2022/03/07 18:52:23;;;;;;;19.63;11.10;;;;;;;;;;5064522;27;95967;-75
2022/03/07 18:54:49;;;;;;;17.63;10.82;;;;;;;;;;5065060;27;95392;-75
2022/03/07 18:57:16;;;;;;;18.98;10.82;;;;;;;;;;5064276;27;97465;-75
2022/03/07 18:59:42;;;;;;;21.30;10.95;;;;;;;;;;5064080;27;95712;-75
2022/03/07 19:02:09;;;;;;;20.13;11.45;;;;;;;;;;5063875;27;96948;-75
2022/03/07 19:04:36;;;;;;;18.55;12.10;;;;;;;;;;5049602;27;97280;-75
2022/03/07 19:07:03;;;;;;;27.60;15.43;;;;;;;;;;5062770;27;96827;-75
2022/03/07 19:09:29;;;;;;;22.48;11.27;;;;;;;;;;5064240;27;97413;-75
2022/03/07 19:11:56;;;;;;;20.30;11.75;;;;;;;;;;5053172;27;96024;-76
2022/03/07 19:14:22;;;;;;;18.70;10.63;;;;;;;;;;5050663;27;96718;-75
2022/03/07 19:16:48;;;;;;;14.20;9.32;;;;;;;;;;5050507;27;97120;-75
2022/03/07 19:19:15;;;;;;;18.55;10.88;;;;;;;;;;5050423;27;95554;-75
2022/03/07 19:21:42;;;;;;;17.73;10.40;;;;;;;;;;5051009;27;96793;-75
2022/03/07 19:24:08;;;;;;;17.77;10.05;;;;;;;;;;5049483;27;96474;-74
2022/03/07 19:26:35;;;;;;;18.50;11.43;;;;;;;;;;5053611;27;96785;-75
2022/03/07 19:29:02;;;;;;;17.88;11.63;;;;;;;;;;5050191;27;97332;-75
2022/03/07 19:31:28;;;;;;;16.42;11.02;;;;;;;;;;5049807;27;95374;-75
2022/03/07 19:33:55;;;;;;;20.58;12.00;;;;;;;;;;5031712;27;96754;-75
2022/03/07 19:36:25;;;;;;;15.82;9.95;;;;;;;;;;5049478;27;97630;-76
2022/03/07 19:38:52;;;;;;;15.02;9.63;;;;;;;;;;5050960;27;95311;-75
2022/03/07 19:41:19;;;;;;;23.00;12.20;;;;;;;;;;5051386;27;96654;-75
2022/03/07 19:43:48;;;;;;;23.08;12.25;;;;;;;;;;5050962;27;97359;-75
2022/03/07 19:46:14;;;;;;;21.10;12.88;;;;;;;;;;5032117;27;95434;-76
2022/03/07 19:48:41;;;;;;;24.10;12.55;;;;;;;;;;5053157;27;97367;-75
2022/03/07 19:51:07;;;;;;;20.27;12.20;;;;;;;;;;5050349;27;95378;-75
2022/03/07 19:53:34;;;;;;;19.75;11.73;;;;;;;;;;5050595;27;97396;-76
2022/03/07 19:56:01;;;;;;;19.75;11.10;;;;;;;;;;5049504;27;97351;-75
2022/03/07 19:58:27;;;;;;;21.40;11.88;;;;;;;;;;5050830;27;95408;-75
2022/03/07 20:00:54;;;;;;;19.00;11.68;;;;;;;;;;5050387;27;97372;-75
2022/03/07 20:03:23;;;;;;;18.83;12.00;;;;;;;;;;5049229;27;96284;-74
2022/03/07 20:05:51;;;;;;;22.27;13.63;;;;;;;;;;5050164;27;95544;-76
2022/03/07 20:08:18;;;;;;;20.88;12.93;;;;;;;;;;5050064;27;97403;-75
2022/03/07 20:10:44;;;;;;;23.45;13.85;;;;;;;;;;5053475;27;95774;-75
2022/03/07 20:13:10;;;;;;;23.73;13.38;;;;;;;;;;5049845;27;95795;-74
2022/03/07 20:15:37;;;;;;;23.85;13.35;;;;;;;;;;5049481;27;97342;-75
2022/03/07 20:18:03;;;;;;;21.50;12.75;;;;;;;;;;5031729;27;95185;-74
2022/03/07 20:20:30;;;;;;;21.20;12.48;;;;;;;;;;5049231;27;97005;-74
2022/03/07 20:22:57;;;;;;;18.80;12.20;;;;;;;;;;5022882;27;97657;-74
2022/03/07 20:25:23;;;;;;;22.55;12.45;;;;;;;;;;5048218;27;95461;-74
2022/03/07 20:27:50;;;;;;;22.23;12.23;;;;;;;;;;5048830;27;97049;-74
2022/03/07 20:30:16;;;;;;;20.08;12.60;;;;;;;;;;5052638;27;97341;-75
2022/03/07 20:32:42;;;;;;;20.23;12.02;;;;;;;;;;5050377;27;96409;-74
2022/03/07 20:35:09;;;;;;;22.83;13.45;;;;;;;;;;5046932;27;97570;-74
2022/03/07 20:37:36;;;;;;;26.35;14.02;;;;;;;;;;5031484;27;95999;-74
2022/03/07 20:40:04;;;;;;;21.35;13.65;;;;;;;;;;5049250;27;96724;-74
2022/03/07 20:42:30;;;;;;;21.23;13.05;;;;;;;;;;5048900;27;96990;-74
2022/03/07 20:44:57;;;;;;;23.20;13.25;;;;;;;;;;5046114;27;95482;-74
2022/03/07 20:47:23;;;;;;;22.10;12.73;;;;;;;;;;5041890;27;96734;-75
2022/03/07 20:49:50;;;;;;;23.10;13.75;;;;;;;;;;5037139;27;96639;-74
2022/03/07 20:52:16;;;;;;;20.85;12.85;;;;;;;;;;5042696;27;95274;-74
2022/03/07 20:54:43;;;;;;;24.98;13.40;;;;;;;;;;5032464;27;97445;-75
2022/03/07 20:57:09;;;;;;;20.67;12.52;;;;;;;;;;5047834;27;95750;-74
2022/03/07 20:59:39;;;;;;;28.98;13.18;;;;;;;;;;5042741;27;96785;-74
2022/03/07 21:02:05;;;;;;;24.17;13.50;;;;;;;;;;5038613;27;97352;-74
2022/03/07 21:04:32;;;;;;;24.10;12.80;;;;;;;;;;5048291;27;95655;-73
2022/03/07 21:06:59;;;;;;;18.90;11.45;;;;;;;;;;5048068;27;97005;-73
2022/03/07 21:09:26;;;;;;;21.60;12.27;;;;;;;;;;5048278;27;97466;-73
2022/03/07 21:11:52;;;;;;;18.40;12.07;;;;;;;;;;5035652;27;96828;-73
2022/03/07 21:14:19;;;;;;;23.13;12.48;;;;;;;;;;5036701;27;97227;-73
2022/03/07 21:16:46;;;;;;;19.98;11.32;;;;;;;;;;5047675;27;95271;-73
2022/03/07 21:19:13;;;;;;;23.17;11.73;;;;;;;;;;5047357;27;96755;-73
2022/03/07 21:21:40;;;;;;;22.75;12.65;;;;;;;;;;5047455;27;97576;-73
2022/03/07 21:24:06;;;;;;;23.58;13.50;;;;;;;;;;5048176;27;95121;-74
2022/03/07 21:26:32;;;;;;;20.95;12.35;;;;;;;;;;5047703;27;96976;-73
2022/03/07 21:28:59;;;;;;;20.40;12.07;;;;;;;;;;5046457;27;96328;-74
2022/03/07 21:31:25;;;;;;;20.05;12.27;;;;;;;;;;5047916;27;95557;-74
2022/03/07 21:33:51;;;;;;;24.00;12.25;;;;;;;;;;5047511;27;96785;-74
2022/03/07 21:36:19;;;;;;;19.15;11.73;;;;;;;;;;5050122;27;97172;-73
2022/03/07 21:38:45;;;;;;;21.30;12.05;;;;;;;;;;5047354;27;96267;-73
2022/03/07 21:41:12;;;;;;;20.90;12.30;;;;;;;;;;5045742;27;97260;-74
2022/03/07 21:43:38;;;;;;;22.30;11.65;;;;;;;;;;5048438;27;95811;-73
2022/03/07 21:46:05;;;;;;;23.42;12.50;;;;;;;;;;5042989;27;96679;-74
2022/03/07 21:48:31;;;;;;;20.15;11.70;;;;;;;;;;5046851;27;97204;-73
2022/03/07 21:50:58;;;;;;;24.00;12.15;;;;;;;;;;5041931;27;96166;-73
2022/03/07 21:53:24;;;;;;;18.63;11.38;;;;;;;;;;5042330;27;96781;-73
2022/03/07 21:55:51;;;;;;;22.70;12.02;;;;;;;;;;5029592;27;97415;-73
2022/03/07 21:58:17;;;;;;;21.30;11.82;;;;;;;;;;5047995;27;95757;-73
2022/03/07 22:00:59;;;;;;;33.57;12.13;;;;;;;;;;5046257;27;97412;-73
2022/03/07 22:03:25;;;;;;;21.55;11.52;;;;;;;;;;5028464;27;96714;-75
2022/03/07 22:05:52;;;;;;;22.52;13.02;;;;;;;;;;5033385;27;99410;-74
2022/03/07 22:08:18;;;;;;;18.92;11.95;;;;;;;;;;5043853;27;97012;-73
2022/03/07 22:10:46;;;;;;;24.67;12.55;;;;;;;;;;5047208;27;95348;-74
2022/03/07 22:13:13;;;;;;;21.90;12.57;;;;;;;;;;5045051;27;96943;-74
2022/03/07 22:15:39;;;;;;;20.50;11.30;;;;;;;;;;5028611;27;97506;-74
2022/03/07 22:18:06;;;;;;;21.25;12.18;;;;;;;;;;5048171;27;97415;-74
2022/03/07 22:20:32;;;;;;;21.55;12.13;;;;;;;;;;5047917;27;97336;-73
2022/03/07 22:22:59;;;;;;;22.50;11.88;;;;;;;;;;5047655;27;95299;-74
2022/03/07 22:25:37;;;;;;;21.40;11.18;;;;;;;;;;5048930;27;96188;-74
2022/03/07 22:28:10;;;;;;;22.55;11.30;;;;;;;;;;5047968;27;97464;-75
2022/03/07 22:30:36;;;;;;;21.88;10.52;;;;;;;;;;5047963;27;95840;-75
2022/03/07 22:33:03;;;;;;;19.95;11.57;;;;;;;;;;5048569;27;96948;-73
2022/03/07 22:35:29;;;;;;;20.58;11.90;;;;;;;;;;5030275;27;97426;-74
2022/03/07 22:37:56;;;;;;;23.90;12.48;;;;;;;;;;5047038;27;95687;-74
2022/03/07 22:40:22;;;;;;;19.77;11.77;;;;;;;;;;5050460;27;96930;-73
2022/03/07 22:42:49;;;;;;;21.17;11.50;;;;;;;;;;5048315;27;95651;-74
2022/03/07 22:45:15;;;;;;;22.33;12.05;;;;;;;;;;5047761;27;95765;-74
2022/03/07 22:47:41;;;;;;;19.92;11.68;;;;;;;;;;5050143;27;96325;-74
2022/03/07 22:50:08;;;;;;;20.63;11.88;;;;;;;;;;5048768;27;95671;-74
2022/03/07 22:52:35;;;;;;;24.90;12.45;;;;;;;;;;5050796;27;96751;-74
2022/03/07 22:55:01;;;;;;;24.23;13.60;;;;;;;;;;5051317;27;97363;-74
2022/03/07 22:57:28;;;;;;;21.05;12.07;;;;;;;;;;5050820;27;96344;-74
2022/03/07 22:59:54;;;;;;;19.80;11.95;;;;;;;;;;5051279;27;96825;-73
2022/03/07 23:02:20;;;;;;;20.30;12.32;;;;;;;;;;5054523;27;97065;-74
2022/03/07 23:07:32;;;;;;;20.58;12.13;;;;;;;;;;5050047;27;96383;-74
2022/03/07 23:09:58;;;;;;;21.60;12.80;;;;;;;;;;5050844;27;95663;-75
2022/03/07 23:12:24;;;;;;;20.83;12.50;;;;;;;;;;5032740;27;96745;-75
2022/03/07 23:14:51;;;;;;;23.08;11.52;;;;;;;;;;5051395;27;98059;-74
2022/03/07 23:17:17;;;;;;;25.58;13.65;;;;;;;;;;5050686;27;95464;-74
2022/03/07 23:19:44;;;;;;;22.85;12.48;;;;;;;;;;5050042;27;95251;-74
2022/03/07 23:22:10;;;;;;;21.65;12.85;;;;;;;;;;5032568;27;97321;-76
2022/03/07 23:24:36;;;;;;;23.20;12.63;;;;;;;;;;5054571;27;95408;-74
2022/03/07 23:27:03;;;;;;;25.65;12.43;;;;;;;;;;5049973;27;96170;-75
2022/03/07 23:29:29;;;;;;;25.95;12.30;;;;;;;;;;5051060;27;95465;-75
2022/03/07 23:31:55;;;;;;;20.38;11.95;;;;;;;;;;5051151;27;96988;-75
2022/03/07 23:34:22;;;;;;;23.55;11.98;;;;;;;;;;5050246;27;97524;-75
2022/03/07 23:36:48;;;;;;;20.58;12.05;;;;;;;;;;5051429;27;95415;-74
2022/03/07 23:39:15;;;;;;;23.67;12.27;;;;;;;;;;5049543;27;96762;-75
2022/03/07 23:41:41;;;;;;;22.73;12.40;;;;;;;;;;5051183;27;97253;-74
2022/03/07 23:44:07;;;;;;;23.40;12.88;;;;;;;;;;5050179;27;95660;-74
2022/03/07 23:46:34;;;;;;;21.20;11.70;;;;;;;;;;5053785;27;96783;-75
2022/03/07 23:49:01;;;;;;;23.52;12.00;;;;;;;;;;5050469;27;95860;-74
2022/03/07 23:51:27;;;;;;;27.83;12.38;;;;;;;;;;5051129;27;97243;-75
2022/03/07 23:53:53;;;;;;;27.17;12.68;;;;;;;;;;5049514;27;97360;-74
2022/03/07 23:56:20;;;;;;;20.75;12.27;;;;;;;;;;5050666;27;95418;-75
2022/03/07 23:58:46;;;;;;;21.48;12.80;;;;;;;;;;5050513;27;97359;-75
